• Join FlightAware (Why Join?)
  • Login
  • US Flag 
02:07PM EDT


 

Airport Tracker/Info


-or-


 

Live Flight TrackerFlight Track Log ✈ UAL33 ✈ 28-Jul-2013 ✈ KIAH - KORD

Flight Track Log - Related Links

Times and Time Zones

All times are in EDT time to prevent confusion due to time zone crossing. See the UAL33 flight status page for this flight to view local times or setup timezone preferences in your user account.

Time Position Orientation Groundspeed Altitude Reporting Facility
EDT Latitude Longitude Course Direction KTS MPH feet Rate Location/Type
05:33PM 29.9814 -95.3539 180° South 3 3 100  Level FlightAware ADS-B
05:33PM 29.9731 -95.3488 152° Southeast 153 176 100 780 Level FlightAware ADS-B
05:33PM 29.9684 -95.3460 153° Southeast 154 177 400 2,160 Climbing FlightAware ADS-B
05:33PM 29.9570 -95.3427 166° South 155 178 1,000 1,860 Climbing FlightAware ADS-B
05:34PM 29.9490 -95.3470 205° Southwest 159 183 1,300 1,500 Climbing FlightAware ADS-B
05:34PM 29.9468 -95.3498 228° Southwest 172 198 1,400 1,200 Climbing FlightAware ADS-B
05:34PM 29.9441 -95.3557 242° Southwest 180 207 1,500 960 Climbing FlightAware ADS-B
05:34PM 29.9431 -95.3606 257° West 192 221 1,600 1,320 Climbing FlightAware ADS-B
05:34PM 29.9429 -95.3643 266° West 200 230 1,700 1,680 Climbing FlightAware ADS-B
05:34PM 29.9433 -95.3689 276° West 208 239 1,800 1,500 Climbing FlightAware ADS-B
05:34PM 29.9439 -95.3730 280° West 215 247 1,900 720 Climbing FlightAware ADS-B
05:34PM 29.9448 -95.3773 284° West 221 254 1,900 1,200 Level FlightAware ADS-B
05:34PM 29.9465 -95.3843 286° West 230 265 2,100 1,860 Climbing FlightAware ADS-B
05:34PM 29.9508 -95.4014 286° West 251 289 2,500 1,620 Climbing FlightAware ADS-B
05:34PM 29.9526 -95.4073 289° West 257 296 2,600 1,500 Climbing FlightAware ADS-B
05:35PM 29.9544 -95.4118 295° West 261 300 2,700 2,520 Climbing FlightAware ADS-B
05:35PM 29.9566 -95.4163 299° West 264 304 2,900 3,000 Climbing FlightAware ADS-B
05:35PM 29.9595 -95.4208 307° West 269 310 3,100 2,520 Climbing FlightAware ADS-B
05:35PM 29.9621 -95.4240 313° West 272 313 3,200 2,160 Climbing FlightAware ADS-B
05:35PM 29.9701 -95.4313 322° Northwest 277 319 3,500 1,800 Climbing FlightAware ADS-B
05:35PM 29.9754 -95.4344 333° Northwest 278 320 3,600 1,500 Climbing FlightAware ADS-B
05:35PM 29.9795 -95.4363 338° Northwest 278 320 3,700 1,500 Climbing FlightAware ADS-B
05:35PM 29.9908 -95.4386 354° North 278 320 3,900 240 Climbing FlightAware ADS-B
05:36PM 30.0761 -95.4322 North 282 325 4,000 60 Climbing FlightAware ADS-B
05:36PM 30.0972 -95.4309 North 281 323 4,000 960 Level FlightAware ADS-B
05:38PM 30.2153 -95.4228 North 285 328 5,700 1,500 Climbing FlightAware ADS-B
05:38PM 30.2454 -95.4211 North 287 330 6,900 3,120 Climbing FlightAware ADS-B
05:39PM 30.2671 -95.4251 346° North 288 331 7,800 3,120 Climbing FlightAware ADS-B
05:39PM 30.2722 -95.4271 341° North 289 333 8,000 3,000 Climbing FlightAware ADS-B
05:39PM 30.2845 -95.4346 329° Northwest 288 331 8,500 2,880 Climbing FlightAware ADS-B
05:40PM 30.3274 -95.4711 324° Northwest 290 334 10,400 2,520 Climbing FlightAware ADS-B
05:41PM 30.4067 -95.5403 323° Northwest 346 398 12,900 1,800 Climbing FlightAware ADS-B
05:42PM 30.4863 -95.6096 323° Northwest 409 471 14,100 1,500 Climbing FlightAware ADS-B
05:42PM 30.5143 -95.6336 324° Northwest 417 480 14,800 2,520 Climbing FlightAware ADS-B
05:42PM 30.5674 -95.6711 330° Northwest 425 489 16,200 2,520 Climbing FlightAware ADS-B
05:43PM 30.5994 -95.7068 314° West 431 496 17,100 2,400 Climbing FlightAware ADS-B
05:43PM 30.6065 -95.7149 316° Northwest 432 497 17,300 3,000 Climbing FlightAware ADS-B
05:43PM 30.6264 -95.7335 324° Northwest 430 495 18,000 2,580 Climbing FlightAware ADS-B
05:43PM 30.6560 -95.7529 334° Northwest 437 503 18,600 2,160 Climbing FlightAware ADS-B
05:44PM 30.7411 -95.7835 345° North 448 516 20,200 2,100 Climbing FlightAware ADS-B
05:44PM 30.7907 -95.7987 345° North 455 524 21,000 1,860 Climbing FlightAware ADS-B
05:45PM 30.8730 -95.8333 338° Northwest 465 535 22,300 1,920 Climbing FlightAware ADS-B
05:46PM 30.9325 -95.8647 336° Northwest 469 540 23,300 1,920 Climbing FlightAware ADS-B
05:47PM 31.0875 -95.9478 335° Northwest 480 552 25,800 1,860 Climbing FlightAware ADS-B
05:47PM 31.1561 -95.9747 341° North 486 559 26,800 1,620 Climbing FlightAware ADS-B
05:48PM 31.2497 -95.9972 349° North 496 571 27,800 1,740 Climbing FlightAware ADS-B
05:51PM 31.6588 -96.0900 353° North 485 558 33,400 1,860 Climbing FlightAware ADS-B
05:52PM 31.7357 -96.0897 North 482 555 34,500 1,800 Climbing FlightAware ADS-B
05:52PM 31.8090 -96.0794 North 478 550 35,500 1,740 Climbing FlightAware ADS-B
05:53PM 31.8770 -96.0699 North 473 544 36,400 1,680 Climbing FlightAware ADS-B
05:54PM 32.0126 -96.0509 North 457 526 38,200 1,500 Climbing FlightAware ADS-B
05:54PM 32.0880 -96.0404 North 454 522 38,900 1,020 Climbing FlightAware ADS-B
05:55PM 32.1966 -96.0253 North 453 521 39,700 780 Climbing FlightAware ADS-B
05:57PM 32.3720 -96.0110 North 452 520 40,800 420 Climbing FlightAware
05:58PM 32.5390 -95.9960 North 450 518 41,000  Climbing FlightAware
06:00PM 32.8050 -95.9720 North 451 519 41,000  Level FlightAware
06:01PM 32.8970 -95.9630 North 452 520 41,000  Level FlightAware
06:02PM 32.9800 -95.9560 North 452 520 41,000  Level FlightAware
06:02PM 33.0640 -95.9480 North 453 521 41,000  Level FlightAware
06:03PM 33.1560 -95.9300 North 458 527 41,000  Level FlightAware
06:04PM 33.2390 -95.8800 27° Northeast 465 535 41,000  Level FlightAware
06:04PM 33.3130 -95.8280 30° Northeast 465 535 41,000  Level FlightAware
06:05PM 33.3900 -95.7730 31° Northeast 466 536 41,000  Level FlightAware
06:06PM 33.4550 -95.7290 29° Northeast 464 534 41,000  Level FlightAware
06:06PM 33.5460 -95.6750 26° Northeast 462 532 41,000  Level FlightAware
06:07PM 33.6090 -95.6390 25° Northeast 463 533 41,000  Level FlightAware
06:08PM 33.6880 -95.5930 26° Northeast 463 533 41,000  Level FlightAware
06:08PM 33.7650 -95.5480 26° Northeast 462 532 41,000  Level FlightAware
06:09PM 33.8470 -95.4990 26° Northeast 462 532 41,000  Level FlightAware
06:10PM 33.9330 -95.4490 26° Northeast 462 532 41,000  Level FlightAware
06:10PM 34.0010 -95.4080 27° Northeast 463 533 41,000  Level FlightAware
06:11PM 34.0930 -95.3550 26° Northeast 464 534 41,000  Level FlightAware
06:12PM 34.1760 -95.3050 26° Northeast 464 534 41,000  Level FlightAware
06:12PM 34.2280 -95.2740 26° Northeast 465 535 41,000  Level FlightAware
06:13PM 34.3200 -95.2190 26° Northeast 462 532 41,000  Level FlightAware
06:14PM 34.3960 -95.1740 26° Northeast 463 533 41,000  Level FlightAware
06:15PM 34.4780 -95.1250 26° Northeast 462 532 41,000  Level FlightAware
06:15PM 34.5400 -95.0890 26° Northeast 462 532 41,000  Level FlightAware
06:16PM 34.6320 -95.0330 27° Northeast 464 534 41,000  Level FlightAware
06:17PM 34.7340 -94.9720 26° Northeast 464 534 41,000  Level FlightAware
06:18PM 34.8560 -94.8980 26° Northeast 41,000  Level FlightAware
06:19PM 34.9620 -94.8350 26° Northeast 466 536 41,000  Level FlightAware
06:20PM 35.1540 -94.7170 27° Northeast 464 534 41,000  Level FlightAware
06:21PM 35.2400 -94.6650 26° Northeast 462 532 41,000  Level FlightAware
06:22PM 35.3160 -94.6190 26° Northeast 461 531 41,000  Level FlightAware
06:23PM 35.3930 -94.5720 26° Northeast 461 531 41,000  Level FlightAware
06:24PM 35.5090 -94.5020 26° Northeast 461 531 41,000  Level FlightAware
06:24PM 35.5980 -94.4450 28° Northeast 460 529 41,000  Level FlightAware
06:25PM 35.6850 -94.3920 26° Northeast 460 529 41,000  Level FlightAware
06:26PM 35.7540 -94.3490 27° Northeast 459 528 41,000  Level FlightAware
06:26PM 35.8450 -94.2930 27° Northeast 459 528 41,000  Level FlightAware
06:27PM 35.9170 -94.2480 27° Northeast 459 528 41,000  Level FlightAware
06:28PM 35.9860 -94.2050 27° Northeast 460 529 41,000  Level FlightAware
06:28PM 36.0690 -94.1530 27° Northeast 461 531 41,000  Level FlightAware
06:29PM 36.1460 -94.1050 27° Northeast 461 531 41,000  Level FlightAware
06:30PM 36.2290 -94.0530 27° Northeast 462 532 41,000  Level FlightAware
06:31PM 36.3060 -94.0050 27° Northeast 462 532 41,000  Level FlightAware
06:31PM 36.3900 -93.9520 27° Northeast 461 531 41,000  Level FlightAware
06:32PM 36.4650 -93.9040 27° Northeast 460 529 41,000  Level FlightAware
06:33PM 36.5370 -93.8590 27° Northeast 459 528 41,000  Level FlightAware
06:33PM 36.6130 -93.8110 27° Northeast 457 526 41,000  Level FlightAware
06:34PM 36.6960 -93.7580 27° Northeast 457 526 41,000  Level FlightAware
06:35PM 36.7680 -93.7130 27° Northeast 458 527 41,000  Level FlightAware
06:35PM 36.8490 -93.6600 28° Northeast 458 527 41,000  Level FlightAware
06:36PM 36.9290 -93.6090 27° Northeast 459 528 41,000  Level FlightAware
06:37PM 37.0120 -93.5560 27° Northeast 461 531 41,000  Level FlightAware
06:37PM 37.0730 -93.5170 27° Northeast 462 532 41,000  Level FlightAware
06:38PM 37.1580 -93.4620 27° Northeast 463 533 41,000  Level FlightAware
06:39PM 37.2350 -93.4130 27° Northeast 466 536 41,000  Level FlightAware
06:39PM 37.3020 -93.3690 28° Northeast 467 537 41,000  Level FlightAware
06:40PM 37.3780 -93.3130 30° Northeast 475 547 41,000  Level FlightAware
06:41PM 37.4570 -93.2410 36° Northeast 479 551 41,000  Level FlightAware
06:41PM 37.5290 -93.1750 36° Northeast 482 555 41,000  Level FlightAware
06:42PM 37.6070 -93.1030 36° Northeast 483 556 41,000  Level FlightAware
06:43PM 37.6800 -93.0350 36° Northeast 486 559 41,000  Level FlightAware
06:43PM 37.7600 -92.9600 37° Northeast 489 563 41,000  Level FlightAware
06:44PM 37.8240 -92.9010 36° Northeast 489 563 41,000  Level FlightAware
06:45PM 37.8960 -92.8330 37° Northeast 490 564 41,000  Level FlightAware
06:45PM 37.9750 -92.7590 36° Northeast 489 563 41,000  Level FlightAware
06:46PM 38.0390 -92.6980 37° Northeast 488 562 41,000  Level FlightAware
06:47PM 38.1170 -92.6260 36° Northeast 486 559 41,000  Level FlightAware
06:47PM 38.1870 -92.5590 37° Northeast 485 558 41,000  Level FlightAware
06:48PM 38.2600 -92.4900 37° Northeast 483 556 41,000  Level FlightAware
06:49PM 38.3510 -92.4030 37° Northeast 481 554 41,000  Level FlightAware
06:50PM 38.4150 -92.3440 36° Northeast 480 552 41,000  Level FlightAware
06:50PM 38.4700 -92.2930 36° Northeast 480 552 41,000  Level FlightAware
06:51PM 38.5440 -92.2250 36° Northeast 480 552 41,000  Level FlightAware
06:52PM 38.5990 -92.1740 36° Northeast 480 552 41,000  Level FlightAware
06:52PM 38.6720 -92.1060 36° Northeast 480 552 41,000  Level FlightAware
06:53PM 38.7920 -91.9800 39° Northeast 479 551 41,000  Level FlightAware
06:54PM 38.8480 -91.9270 36° Northeast 479 551 41,000  Level FlightAware
06:54PM 38.9290 -91.8480 37° Northeast 472 543 41,000  Level FlightAware
06:55PM 39.0030 -91.7760 37° Northeast 474 545 41,000  Level FlightAware
06:56PM 39.1030 -91.6790 37° Northeast 473 544 41,000  Level FlightAware
06:57PM 39.1820 -91.6020 37° Northeast 473 544 41,000  Level FlightAware
06:58PM 39.2710 -91.5140 37° Northeast 472 543 41,000  Level FlightAware
06:58PM 39.3330 -91.4530 37° Northeast 472 543 41,000  Level FlightAware
06:59PM 39.4090 -91.3780 37° Northeast 474 545 41,000  Level FlightAware
07:00PM 39.4870 -91.3010 37° Northeast 474 545 41,000  Level FlightAware
07:00PM 39.5650 -91.2230 38° Northeast 472 543 41,000  Level FlightAware
07:01PM 39.6400 -91.1480 38° Northeast 473 544 41,000  Level FlightAware
07:02PM 39.7100 -91.0780 38° Northeast 476 548 41,000  Level FlightAware
07:02PM 39.7730 -91.0160 37° Northeast 479 551 41,000 -120 Level FlightAware
07:03PM 39.8400 -90.9490 38° Northeast 480 552 40,900 -1,080 Descending FlightAware
07:04PM 39.9200 -90.8670 38° Northeast 477 549 39,500 -2,100 Descending FlightAware
07:05PM 39.9890 -90.7990 37° Northeast 478 550 38,000 -2,400 Descending FlightAware
07:05PM 40.0630 -90.7240 38° Northeast 480 552 36,300 -2,580 Descending FlightAware
07:06PM 40.1290 -90.6560 38° Northeast 491 565 34,500 -2,340 Descending FlightAware
07:07PM 40.2190 -90.5650 38° Northeast 499 574 33,000 -1,620 Descending FlightAware
07:07PM 40.2810 -90.5020 38° Northeast 494 568 32,300 -1,260 Descending FlightAware
07:08PM 40.3460 -90.4350 38° Northeast 500 575 31,500 -1,200 Descending FlightAware
07:09PM 40.4340 -90.3450 38° Northeast 499 574 30,700 -1,080 Descending FlightAware
07:09PM 40.4950 -90.2820 38° Northeast 497 572 30,100 -1,020 Descending FlightAware
07:10PM 40.5720 -90.2020 38° Northeast 499 574 29,400 -960 Descending FlightAware
07:11PM 40.6520 -90.1190 38° Northeast 498 573 28,700 -960 Descending FlightAware
07:11PM 40.7130 -90.0560 38° Northeast 500 575 28,100 -1,080 Descending FlightAware
07:12PM 40.8070 -89.9590 38° Northeast 498 573 27,200 -1,080 Descending FlightAware
07:13PM 40.8780 -89.8840 39° Northeast 494 568 26,600 -1,020 Descending FlightAware
07:13PM 40.9510 -89.8080 38° Northeast 483 556 25,900 -1,020 Descending FlightAware
07:14PM 41.0190 -89.7360 39° Northeast 472 543 25,300 -960 Descending FlightAware
07:15PM 41.0810 -89.6710 38° Northeast 472 543 24,700 -1,020 Descending FlightAware
07:15PM 41.1510 -89.5870 42° Northeast 480 552 24,000 -1,620 Descending FlightAware
07:16PM 41.2010 -89.4860 57° Northeast 484 557 22,500 -2,340 Descending FlightAware
07:17PM 41.2380 -89.3940 62° Northeast 476 548 21,100 -2,280 Descending FlightAware
07:17PM 41.2830 -89.2820 62° Northeast 464 534 19,500 -2,220 Descending FlightAware
07:18PM 41.3230 -89.1830 62° Northeast 454 522 18,000 -2,220 Descending FlightAware
07:19PM 41.3650 -89.0770 62° Northeast 440 506 16,400 -2,160 Descending FlightAware
07:19PM 41.4040 -88.9820 61° Northeast 426 490 15,000 -2,040 Descending FlightAware
07:20PM 41.4400 -88.8910 62° Northeast 412 474 13,700 -2,040 Descending FlightAware
07:21PM 41.4780 -88.7950 62° Northeast 399 459 12,200 -1,920 Descending FlightAware
07:22PM 41.5100 -88.7130 62° Northeast 387 445 11,100 -1,020 Descending FlightAware
07:22PM 41.5420 -88.6330 62° Northeast 372 428 10,900 -120 Descending FlightAware
07:23PM 41.5770 -88.5430 63° Northeast 370 426 11,000 60 Climbing FlightAware
07:24PM 41.6080 -88.4700 60° Northeast 367 422 11,000  Level FlightAware
07:24PM 41.6490 -88.3990 52° Northeast 365 420 11,000 -120 Level FlightAware
07:25PM 41.6910 -88.3260 52° Northeast 365 420 10,900 -600 Descending FlightAware
07:26PM 41.7330 -88.2540 52° Northeast 312 359 10,200 -1,080 Descending FlightAware
07:26PM 41.7440 -88.2360 51° Northeast 302 348 9,900 -1,800 Descending FlightAware
07:26PM 41.7680 -88.1950 52° Northeast 297 342 9,000 -2,100 Descending FlightAware
07:27PM 41.7810 -88.1720 53° Northeast 301 346 8,400 -1,380 Descending FlightAware
07:27PM 41.8050 -88.1300 53° Northeast 291 335 8,000 -1,080 Descending FlightAware
07:27PM 41.8260 -88.0890 55° Northeast 292 336 7,400 -1,380 Descending FlightAware
07:28PM 41.8320 -88.0700 67° East 294 338 7,100 -600 Descending FlightAware
07:28PM 41.8420 -88.0190 75° East 295 339 7,000 -180 Descending FlightAware
07:28PM 41.8490 -87.9840 75° East 292 336 7,000 -120 Level FlightAware
07:29PM 41.8600 -87.9290 75° East 289 333 6,900  Descending FlightAware
07:29PM 41.8680 -87.8840 77° East 258 297 7,000 60 Climbing FlightAware
07:30PM 41.8770 -87.8410 74° East 241 277 7,000 -540 Level FlightAware
07:30PM 41.8830 -87.8000 79° East 241 277 6,500 -1,320 Descending FlightAware
07:31PM 41.8840 -87.7470 89° East 243 280 5,600 -1,680 Descending FlightAware
07:31PM 41.8840 -87.7110 90° East 238 274 4,800 -1,680 Descending FlightAware
07:32PM 41.8890 -87.6800 78° East 212 244 4,300 -1,080 Descending FlightAware
07:32PM 41.8950 -87.6710 48° Northeast 201 231 4,200 -660 Descending FlightAware
07:32PM 41.9030 -87.6660 25° Northeast 193 222 4,100 -480 Descending FlightAware
07:32PM 41.9220 -87.6660 360° North 183 211 4,000 -180 Descending FlightAware
07:33PM 41.9330 -87.6780 321° Northwest 175 201 4,000 -480 Level FlightAware
07:33PM 41.9390 -87.6880 309° West 172 198 3,800 -1,320 Descending FlightAware
07:33PM 41.9540 -87.7120 310° West 173 199 3,100 -1,080 Descending FlightAware
07:34PM 41.9690 -87.7330 314° West 173 199 2,800 -840 Descending FlightAware
07:34PM 41.9710 -87.7450 283° West 170 196 2,600 -960 Descending FlightAware
07:35PM 41.9690 -87.7780 265° West 155 178 2,100 -840 Descending FlightAware
07:35PM 41.9690 -87.8040 270° West 142 163 1,800 -780 Descending FlightAware
07:35PM 41.9690 -87.8140 270° West 138 159 1,600 -780 Descending FlightAware
07:36PM 41.9690 -87.8370 270° West 138 159 1,300 -660 Descending FlightAware
07:36PM 41.9690 -87.8600 270° West 141 162 1,000 -780 Descending FlightAware
07:37PM 41.9690 -87.8850 270° West 139 160 600 -840 Descending FlightAware
07:44PM 41.9667 -87.9000 284° West  Level FlightAware Approximate